Time;durP1;ratioP1;P1;durP2;ratioP2;P2;SDS_P1;SDS_P2;PMS_P1;PMS_P2;Temp;Humidity;BMP_temperature;BMP_pressure;BME280_temperature;BME280_humidity;BME280_pressure;Samples;Min_cycle;Max_cycle;Signal;HPM_P1;HPM_P2
2023/10/11 00:01:48;;;;;;;10.40;5.43;;;;;;;16.53;77.46;101241.03;7397846;19;20353;-67
2023/10/11 00:04:26;;;;;;;11.35;5.15;;;;;;;16.53;77.38;101241.03;7394700;19;19931;-68
2023/10/11 00:06:56;;;;;;;11.07;5.40;;;;;;;16.50;77.79;101241.47;7387922;19;19922;-68
2023/10/11 00:09:35;;;;;;;11.07;5.10;;;;;;;16.50;78.09;101230.59;7392494;19;19990;-68
2023/10/11 00:12:04;;;;;;;10.73;5.30;;;;;;;16.47;78.44;101231.84;7396519;19;20349;-68
2023/10/11 00:14:39;;;;;;;10.88;6.05;;;;;;;16.46;78.86;101251.91;7398969;19;19993;-68
2023/10/11 00:17:08;;;;;;;11.48;4.93;;;;;;;16.45;79.15;101242.06;7397127;19;19941;-68
2023/10/11 00:19:39;;;;;;;12.45;5.47;;;;;;;16.44;79.42;101245.03;7397474;19;20375;-68
2023/10/11 00:22:08;;;;;;;12.98;5.20;;;;;;;16.41;79.78;101239.97;7392590;19;20342;-67
2023/10/11 00:24:39;;;;;;;16.65;6.75;;;;;;;16.40;79.86;101238.28;7392556;19;19922;-67
2023/10/11 00:27:10;;;;;;;14.00;5.82;;;;;;;16.39;79.68;101239.38;7398540;19;20397;-68
2023/10/11 00:29:39;;;;;;;17.17;7.18;;;;;;;16.37;80.08;101230.56;7396028;19;19926;-68
2023/10/11 00:32:09;;;;;;;10.25;5.22;;;;;;;16.35;80.16;101217.19;7397418;19;20019;-68
2023/10/11 00:34:38;;;;;;;13.35;5.03;;;;;;;16.32;80.69;101215.69;7398534;19;19978;-67
2023/10/11 00:37:09;;;;;;;9.70;4.97;;;;;;;16.32;80.87;101218.41;7393575;19;19933;-68
2023/10/11 00:39:40;;;;;;;16.48;5.78;;;;;;;16.31;81.43;101222.19;7396893;19;20565;-67
2023/10/11 00:42:10;;;;;;;13.23;5.63;;;;;;;16.30;81.14;101214.25;7399272;19;19947;-67
2023/10/11 00:44:40;;;;;;;15.98;6.10;;;;;;;16.30;81.24;101225.13;7395514;19;20283;-68
2023/10/11 00:47:12;;;;;;;15.38;5.78;;;;;;;16.27;82.07;101220.06;7397312;19;19947;-67
2023/10/11 00:49:40;;;;;;;19.13;6.25;;;;;;;16.25;82.14;101198.56;7395247;19;19944;-68
2023/10/11 00:52:09;;;;;;;15.63;5.47;;;;;;;16.24;82.81;101201.47;7397315;19;19923;-67
2023/10/11 00:54:43;;;;;;;15.38;6.40;;;;;;;16.23;83.35;101207.94;7395040;19;19972;-67
2023/10/11 00:57:15;;;;;;;18.58;6.72;;;;;;;16.22;83.00;101209.00;7394746;19;19927;-67
2023/10/11 00:59:44;;;;;;;15.57;6.78;;;;;;;16.21;83.60;101200.00;7398221;19;20571;-67
2023/10/11 01:02:14;;;;;;;13.32;6.03;;;;;;;16.20;83.12;101201.03;7396712;19;19939;-68
2023/10/11 01:04:43;;;;;;;16.05;6.68;;;;;;;16.18;83.86;101205.03;7397801;19;19919;-67
2023/10/11 01:07:11;;;;;;;11.77;6.93;;;;;;;16.17;84.41;101200.63;7395198;19;20361;-67
2023/10/11 01:09:43;;;;;;;14.15;6.50;;;;;;;16.17;84.20;101203.34;7397597;19;19934;-68
2023/10/11 01:12:13;;;;;;;15.27;6.63;;;;;;;16.13;84.90;101208.34;7397505;19;19923;-67
2023/10/11 01:14:56;;;;;;;16.27;7.57;;;;;;;16.13;84.38;101207.50;7396897;19;20170;-67
2023/10/11 01:17:26;;;;;;;19.35;6.22;;;;;;;16.11;84.68;101205.00;7393770;19;20272;-67
2023/10/11 01:19:54;;;;;;;17.20;7.18;;;;;;;16.10;85.82;101210.63;7398579;19;19933;-67
2023/10/11 01:22:26;;;;;;;19.10;7.15;;;;;;;16.08;86.55;101202.69;7395636;19;19951;-67
2023/10/11 01:24:58;;;;;;;16.17;7.22;;;;;;;16.09;85.77;101196.19;7395145;19;19919;-67
2023/10/11 01:27:30;;;;;;;13.85;7.20;;;;;;;16.06;86.20;101193.88;7395690;19;19942;-67
2023/10/11 01:30:00;;;;;;;18.05;7.30;;;;;;;16.06;86.07;101191.16;7392972;19;19929;-67
2023/10/11 01:32:29;;;;;;;14.30;7.20;;;;;;;16.03;87.36;101180.72;7397515;19;19929;-67
2023/10/11 01:34:58;;;;;;;19.02;7.45;;;;;;;16.03;86.95;101175.28;7393647;19;19974;-67
2023/10/11 01:37:29;;;;;;;16.25;7.45;;;;;;;16.01;87.61;101174.63;7390067;19;19930;-67
2023/10/11 01:40:03;;;;;;;19.40;9.55;;;;;;;16.02;87.72;101186.34;7387840;19;19922;-68
2023/10/11 01:42:31;;;;;;;18.38;7.28;;;;;;;16.00;87.94;101167.56;7395269;19;19930;-67
2023/10/11 01:45:00;;;;;;;20.05;8.07;;;;;;;16.01;88.89;101177.34;7395822;19;19926;-68
2023/10/11 01:47:29;;;;;;;19.55;7.95;;;;;;;15.99;88.55;101184.06;7397214;19;19923;-67
2023/10/11 01:50:00;;;;;;;18.17;7.47;;;;;;;15.99;88.57;101173.19;7396149;19;19926;-67
2023/10/11 01:52:34;;;;;;;16.95;7.95;;;;;;;16.00;88.74;101172.16;7395233;19;20423;-68
2023/10/11 01:55:03;;;;;;;16.38;7.63;;;;;;;15.99;88.37;101173.19;7391762;19;19977;-68
2023/10/11 01:57:34;;;;;;;17.05;8.73;;;;;;;15.98;89.13;101169.63;7397181;19;19948;-68
2023/10/11 02:00:06;;;;;;;22.60;7.80;;;;;;;15.98;88.88;101164.19;7395293;19;19958;-68
2023/10/11 02:02:36;;;;;;;22.17;8.50;;;;;;;15.97;89.11;101161.66;7397368;19;19925;-67
2023/10/11 02:05:05;;;;;;;20.65;8.30;;;;;;;15.95;89.47;101167.31;7393882;19;20342;-67
2023/10/11 02:07:36;;;;;;;18.67;8.48;;;;;;;15.95;89.49;101172.75;7394676;19;20304;-68
2023/10/11 02:10:05;;;;;;;17.13;8.07;;;;;;;15.94;89.56;101165.63;7395043;19;20268;-69
2023/10/11 02:12:35;;;;;;;16.05;7.82;;;;;;;15.94;89.54;101162.09;7394842;19;19926;-68
2023/10/11 02:15:07;;;;;;;18.05;8.75;;;;;;;15.92;90.10;101161.47;7390255;19;20357;-67
2023/10/11 02:17:38;;;;;;;25.80;7.95;;;;;;;15.89;90.03;101155.38;7396081;19;20326;-68
2023/10/11 02:20:14;;;;;;;18.40;7.43;;;;;;;15.87;90.33;101170.22;7395929;19;19938;-67
2023/10/11 02:22:45;;;;;;;22.33;8.00;;;;;;;15.87;89.86;101160.19;7395273;19;19948;-67
2023/10/11 02:25:15;;;;;;;15.80;7.82;;;;;;;15.86;90.04;101147.66;7392480;19;19940;-68
2023/10/11 02:27:44;;;;;;;18.73;8.27;;;;;;;15.87;90.37;101140.34;7388914;19;19959;-68
2023/10/11 02:30:20;;;;;;;17.45;9.02;;;;;;;15.85;90.32;101136.97;7392992;19;19930;-68
2023/10/11 02:32:51;;;;;;;24.73;8.23;;;;;;;15.84;90.84;101138.00;7398007;19;20272;-67
2023/10/11 02:35:20;;;;;;;16.25;8.18;;;;;;;15.83;90.67;101122.78;7392222;19;19952;-67
2023/10/11 02:37:51;;;;;;;16.63;8.23;;;;;;;15.81;90.89;101117.53;7398832;19;19922;-67
2023/10/11 02:40:22;;;;;;;19.33;9.57;;;;;;;15.80;91.45;101107.72;7400372;19;19931;-68
2023/10/11 02:42:55;;;;;;;21.13;8.25;;;;;;;15.80;91.38;101123.16;7399724;19;20291;-67
2023/10/11 02:45:24;;;;;;;21.70;8.75;;;;;;;15.78;91.41;101117.97;7399902;19;19923;-68
2023/10/11 02:47:59;;;;;;;15.68;7.75;;;;;;;15.78;91.37;101117.13;7401892;19;19923;-67
2023/10/11 02:50:28;;;;;;;21.35;8.77;;;;;;;15.78;91.65;101120.69;7399656;19;20257;-68
2023/10/11 02:53:05;;;;;;;17.58;8.02;;;;;;;15.77;91.65;101115.44;7399625;19;20324;-68
2023/10/11 02:55:38;;;;;;;22.80;9.18;;;;;;;15.76;92.41;101135.47;7398347;19;19922;-68
2023/10/11 02:58:08;;;;;;;19.85;9.35;;;;;;;15.75;91.72;101112.91;7399786;19;19978;-68
2023/10/11 03:00:43;;;;;;;20.85;9.25;;;;;;;15.74;91.92;101107.69;7398873;19;19939;-67
2023/10/11 03:03:15;;;;;;;18.35;8.88;;;;;;;15.74;92.31;101121.28;7397849;19;19923;-68
2023/10/11 03:05:45;;;;;;;21.08;8.80;;;;;;;15.73;92.62;101125.88;7399319;19;19922;-67
2023/10/11 03:08:18;;;;;;;18.83;8.55;;;;;;;15.74;92.92;101127.56;7399771;19;20377;-67
2023/10/11 03:10:53;;;;;;;19.25;9.52;;;;;;;15.73;92.89;101131.31;7397728;19;19947;-67
2023/10/11 03:13:24;;;;;;;21.27;9.13;;;;;;;15.72;93.43;101107.91;7399354;19;19947;-67
2023/10/11 03:15:54;;;;;;;23.65;9.10;;;;;;;15.73;92.80;101087.00;7394721;19;19929;-68
2023/10/11 03:18:25;;;;;;;19.52;8.10;;;;;;;15.74;92.98;101088.69;7401441;19;19918;-67
2023/10/11 03:21:06;;;;;;;18.25;9.18;;;;;;;15.74;92.78;101088.69;7398763;19;19923;-67
2023/10/11 03:23:43;;;;;;;19.33;8.70;;;;;;;15.73;93.40;101076.97;7399560;19;19929;-67
2023/10/11 03:26:16;;;;;;;22.50;10.05;;;;;;;15.73;93.08;101085.13;7395902;19;19944;-67
2023/10/11 03:28:56;;;;;;;19.10;8.52;;;;;;;15.76;93.52;101081.16;7398257;19;19919;-67
2023/10/11 03:31:27;;;;;;;22.42;8.55;;;;;;;15.75;93.08;101102.03;7398991;19;19930;-67
2023/10/11 03:33:57;;;;;;;;;;;;;;;15.67;95.13;101098.69;7400597;19;19919;-67
2023/10/11 03:36:34;;;;;;;26.10;9.32;;;;;;;15.76;92.81;101092.88;7392429;19;19922;-67
2023/10/11 03:39:09;;;;;;;19.95;9.50;;;;;;;15.77;93.90;101099.13;7397070;19;19929;-67
2023/10/11 03:41:44;;;;;;;21.17;8.52;;;;;;;15.78;93.46;101076.38;7399518;19;19953;-67
2023/10/11 03:44:17;;;;;;;19.42;8.45;;;;;;;15.77;93.19;101078.25;7398970;19;19918;-67
2023/10/11 03:46:47;;;;;;;18.48;8.25;;;;;;;15.79;93.52;101080.78;7398783;19;19926;-68
2023/10/11 03:51:59;;;;;;;18.80;8.40;;;;;;;15.81;93.40;101076.78;7397248;19;19949;-68
2023/10/11 03:54:30;;;;;;;18.95;8.15;;;;;;;15.83;93.00;101077.41;7398381;19;20293;-67
2023/10/11 03:57:04;;;;;;;25.85;9.48;;;;;;;15.83;93.60;101074.69;7400089;19;19915;-67
2023/10/11 03:59:38;;;;;;;17.77;7.80;;;;;;;15.84;92.94;101095.38;7397850;19;19919;-67
2023/10/11 04:02:10;;;;;;;22.15;9.02;;;;;;;15.85;93.18;101088.91;7399226;19;19919;-67
2023/10/11 04:04:40;;;;;;;19.95;9.05;;;;;;;15.85;93.02;101101.66;7401623;19;19926;-67
2023/10/11 04:07:12;;;;;;;27.90;8.73;;;;;;;15.85;93.13;101099.78;7398764;19;19925;-67
2023/10/11 04:09:44;;;;;;;22.73;8.38;;;;;;;15.85;93.48;101088.06;7400995;19;19914;-67
2023/10/11 04:12:14;;;;;;;28.25;9.15;;;;;;;15.84;93.37;101084.53;7400336;19;19918;-67
2023/10/11 04:14:45;;;;;;;18.42;7.38;;;;;;;15.84;92.90;101081.81;7396044;19;20261;-67
2023/10/11 04:17:27;;;;;;;26.13;8.70;;;;;;;15.85;93.06;101082.63;7398292;19;19941;-68
2023/10/11 04:20:17;;;;;;;19.65;8.70;;;;;;;15.83;93.47;101090.97;7399045;19;19929;-68
2023/10/11 04:22:51;;;;;;;21.02;8.18;;;;;;;15.82;93.57;101085.78;7394989;19;20583;-68
2023/10/11 04:25:22;;;;;;;19.23;7.93;;;;;;;15.83;93.46;101082.84;7397504;19;19948;-67
2023/10/11 04:27:54;;;;;;;22.02;8.50;;;;;;;15.83;93.33;101068.44;7399259;19;19923;-67
2023/10/11 04:30:41;;;;;;;23.13;8.18;;;;;;;15.82;93.23;101086.63;7398120;19;19918;-68
2023/10/11 04:33:12;;;;;;;21.17;8.32;;;;;;;15.82;93.21;101074.91;7397096;19;19956;-67
2023/10/11 04:35:42;;;;;;;21.27;10.05;;;;;;;15.80;93.13;101082.41;7392591;19;19918;-67
2023/10/11 04:38:12;;;;;;;23.50;8.57;;;;;;;15.79;93.67;101095.16;7395552;19;19982;-67
2023/10/11 04:40:50;;;;;;;19.42;8.20;;;;;;;15.78;93.54;101093.50;7394873;19;20276;-68
2023/10/11 04:43:29;;;;;;;21.92;8.25;;;;;;;15.77;93.17;101112.72;7398522;19;19926;-68
2023/10/11 04:46:00;;;;;;;17.08;7.85;;;;;;;15.76;93.60;101109.16;7397275;19;19939;-67
2023/10/11 04:48:33;;;;;;;19.33;8.25;;;;;;;15.75;93.07;101104.75;7398826;19;19926;-67
2023/10/11 04:51:06;;;;;;;18.13;7.18;;;;;;;15.75;93.22;101109.34;7392572;19;19945;-68
2023/10/11 04:53:45;;;;;;;24.63;8.43;;;;;;;15.74;93.61;101107.69;7395255;19;19925;-67
2023/10/11 04:59:05;;;;;;;18.88;7.40;;;;;;;15.73;93.56;101114.16;7391756;19;19922;-67
2023/10/11 05:01:55;;;;;;;16.50;7.43;;;;;;;15.73;93.25;101106.03;7394945;19;19940;-67
2023/10/11 05:04:28;;;;;;;20.55;7.78;;;;;;;15.71;93.82;101081.78;7396417;19;19922;-67
2023/10/11 05:06:57;;;;;;;23.63;7.32;;;;;;;15.70;93.46;101071.13;7393823;19;19926;-67
2023/10/11 05:09:38;;;;;;;20.10;8.02;;;;;;;15.68;93.50;101081.34;7392738;19;19957;-67
2023/10/11 05:12:12;;;;;;;15.20;7.93;;;;;;;15.67;93.83;101087.81;7397278;19;19918;-68
2023/10/11 05:14:56;;;;;;;17.17;7.95;;;;;;;15.66;93.80;101081.53;7393674;19;19982;-67
2023/10/11 05:17:38;;;;;;;21.38;8.77;;;;;;;15.65;93.69;101081.78;7393287;19;19922;-67
2023/10/11 05:23:02;;;;;;;17.10;7.45;;;;;;;15.61;94.10;101075.06;7397761;19;20007;-69
2023/10/11 05:25:56;;;;;;;18.10;8.35;;;;;;;15.60;94.22;101076.09;7395163;19;19927;-67
2023/10/11 05:28:30;;;;;;;21.58;8.98;;;;;;;15.58;94.25;101080.91;7396690;19;19922;-67
2023/10/11 05:33:59;;;;;;;21.38;8.15;;;;;;;15.57;94.59;101079.25;7393394;19;19915;-67
2023/10/11 05:52:42;;;;;;;22.17;8.18;;;;;;;15.54;94.96;101094.06;7386236;19;20203;-68
2023/10/11 05:55:11;;;;;;;22.10;9.20;;;;;;;15.54;94.60;101080.47;7373286;19;19952;-67
2023/10/11 05:57:42;;;;;;;17.83;8.55;;;;;;;15.53;94.55;101078.81;7381680;19;19930;-68
2023/10/11 06:00:23;;;;;;;20.25;8.18;;;;;;;15.51;95.19;101070.03;7394090;19;19926;-68
2023/10/11 06:02:52;;;;;;;24.35;8.35;;;;;;;15.53;94.71;101067.13;7391784;19;19978;-68
2023/10/11 06:05:23;;;;;;;25.15;9.50;;;;;;;15.52;94.87;101073.59;7381400;19;19978;-68
2023/10/11 06:08:03;;;;;;;20.33;8.77;;;;;;;15.51;95.40;101071.91;7376346;19;20342;-68
2023/10/11 06:10:41;;;;;;;26.60;9.07;;;;;;;15.51;94.99;101066.47;7383246;19;20388;-69
2023/10/11 06:13:13;;;;;;;25.00;8.30;;;;;;;15.51;95.54;101066.47;7395516;19;20258;-68
2023/10/11 06:15:58;;;;;;;19.77;8.23;;;;;;;15.49;95.90;101057.69;7394130;19;20349;-68
2023/10/11 06:18:42;;;;;;;22.67;9.13;;;;;;;15.52;95.55;101065.44;7395384;19;19927;-68
2023/10/11 06:21:24;;;;;;;21.55;8.15;;;;;;;15.53;95.51;101058.97;7394391;19;19962;-67
2023/10/11 06:23:53;;;;;;;19.05;8.05;;;;;;;15.55;95.82;101059.59;7391033;19;19934;-68
2023/10/11 06:26:52;;;;;;;16.30;8.45;;;;;;;15.57;95.62;101065.66;7395716;19;20324;-67
2023/10/11 06:29:22;;;;;;;27.52;8.98;;;;;;;15.58;95.45;101064.59;7396485;19;19930;-67
2023/10/11 06:31:55;;;;;;;22.63;9.10;;;;;;;15.61;95.61;101077.78;7385660;19;20023;-68
2023/10/11 06:34:26;;;;;;;22.25;9.13;;;;;;;15.63;95.51;101075.69;7388650;19;20521;-67
2023/10/11 06:36:57;;;;;;;20.55;8.60;;;;;;;15.65;95.77;101081.78;7387783;19;19925;-68
2023/10/11 06:40:07;;;;;;;26.42;8.68;;;;;;;15.67;95.49;101071.53;7392478;19;19993;-68
2023/10/11 06:42:27;;;;;;;19.98;8.73;;;;;;;15.70;95.60;101085.56;7391444;19;19926;-67
2023/10/11 06:44:57;;;;;;;25.70;8.93;;;;;;;15.75;95.27;101079.47;7392772;19;19922;-68
2023/10/11 06:47:33;;;;;;;23.00;8.80;;;;;;;15.78;95.74;101093.50;7385555;19;19927;-68
2023/10/11 06:50:10;;;;;;;21.58;8.93;;;;;;;15.82;95.75;101091.22;7381609;19;19919;-67
2023/10/11 06:52:43;;;;;;;23.15;7.75;;;;;;;15.86;95.60;101100.63;7388682;19;20330;-67
2023/10/11 06:55:22;;;;;;;27.83;8.80;;;;;;;15.87;95.79;101105.03;7394252;19;20074;-67
2023/10/11 06:57:54;;;;;;;27.42;9.38;;;;;;;15.88;95.83;101096.66;7380398;19;19954;-68
2023/10/11 07:00:27;;;;;;;21.77;9.43;;;;;;;15.90;95.34;101101.88;7390816;19;19929;-67
2023/10/11 07:03:09;;;;;;;19.45;8.95;;;;;;;15.91;95.55;101091.84;7394619;19;19963;-68
2023/10/11 07:05:46;;;;;;;26.95;8.98;;;;;;;15.91;95.90;101089.13;7388864;19;20044;-67
2023/10/11 07:08:17;;;;;;;17.88;8.68;;;;;;;15.93;95.42;101087.88;7386958;19;19930;-68
2023/10/11 07:11:00;;;;;;;26.55;9.38;;;;;;;15.94;95.66;101086.84;7390813;19;19998;-67
2023/10/11 07:13:43;;;;;;;21.95;8.90;;;;;;;15.97;95.55;101104.59;7390278;19;19958;-68
2023/10/11 07:16:11;;;;;;;18.67;9.07;;;;;;;15.98;95.82;101079.94;7386447;19;19933;-69
2023/10/11 07:18:43;;;;;;;24.45;9.52;;;;;;;16.00;95.55;101083.31;7395383;19;20458;-67
2023/10/11 07:21:15;;;;;;;22.38;7.85;;;;;;;16.02;96.00;101081.19;7398181;19;19958;-68
2023/10/11 07:23:56;;;;;;;22.63;9.13;;;;;;;16.08;95.38;101082.25;7393866;19;19926;-67
2023/10/11 07:26:48;;;;;;;24.40;9.35;;;;;;;16.11;95.75;101076.41;7395862;19;19924;-68
2023/10/11 07:29:13;;;;;;;19.30;8.93;;;;;;;16.15;95.09;101080.38;7398420;19;19986;-67
2023/10/11 07:31:48;;;;;;;28.80;10.50;;;;;;;16.17;95.56;101083.75;7390309;19;19923;-68
2023/10/11 07:34:21;;;;;;;26.83;7.75;;;;;;;16.19;95.33;101087.91;7394684;19;20995;-68
2023/10/11 07:36:51;;;;;;;24.23;8.93;;;;;;;16.20;95.72;101081.44;7390723;19;19922;-67
2023/10/11 07:39:25;;;;;;;21.77;8.35;;;;;;;16.23;95.40;101081.00;7397133;19;19958;-68
2023/10/11 07:42:00;;;;;;;20.63;7.95;;;;;;;16.24;95.28;101071.81;7394826;19;20501;-67
2023/10/11 07:44:31;;;;;;;23.85;9.57;;;;;;;16.28;95.72;101077.66;7394956;19;19923;-68
2023/10/11 07:47:00;;;;;;;26.00;9.52;;;;;;;16.29;95.10;101072.03;7394523;19;20333;-68
2023/10/11 07:49:38;;;;;;;22.92;9.27;;;;;;;16.32;95.12;101071.59;7387350;19;19922;-67
2023/10/11 07:52:09;;;;;;;15.52;8.55;;;;;;;16.34;95.39;101064.09;7396882;19;19925;-67
2023/10/11 07:54:39;;;;;;;24.90;8.93;;;;;;;16.37;95.09;101068.25;7395883;19;20349;-67
2023/10/11 07:57:13;;;;;;;20.40;8.60;;;;;;;16.38;95.03;101071.81;7394461;19;19914;-67
2023/10/11 07:59:42;;;;;;;23.13;8.13;;;;;;;16.40;95.37;101077.84;7394419;19;19947;-67
2023/10/11 08:02:26;;;;;;;22.55;8.85;;;;;;;16.41;94.89;101074.09;7394941;19;20092;-67
2023/10/11 08:04:59;;;;;;;26.83;9.75;;;;;;;16.41;95.54;101066.78;7397687;19;20388;-67
2023/10/11 08:07:28;;;;;;;23.63;8.05;;;;;;;16.43;95.31;101069.31;7396869;19;19930;-68
2023/10/11 08:09:57;;;;;;;23.67;10.10;;;;;;;16.44;95.26;101077.22;7398551;19;19939;-67
2023/10/11 08:12:27;;;;;;;24.20;9.75;;;;;;;16.45;94.98;101075.34;7396868;19;19918;-67
2023/10/11 08:14:56;;;;;;;27.20;10.15;;;;;;;16.46;95.49;101075.16;7393277;19;19926;-67
2023/10/11 08:17:28;;;;;;;25.08;9.80;;;;;;;16.46;95.13;101080.59;7397480;19;19929;-67
2023/10/11 08:19:59;;;;;;;24.88;10.10;;;;;;;16.46;95.51;101077.03;7399192;19;19918;-67
2023/10/11 08:22:29;;;;;;;24.25;9.80;;;;;;;16.47;95.58;101073.28;7386653;19;20281;-67
2023/10/11 08:25:01;;;;;;;25.75;10.20;;;;;;;16.46;95.53;101083.31;7392596;19;19922;-67
2023/10/11 08:27:30;;;;;;;30.58;11.60;;;;;;;16.45;96.01;101091.66;7395750;19;20880;-68
2023/10/11 08:30:09;;;;;;;25.02;10.68;;;;;;;16.43;96.10;101110.09;7395128;19;20298;-67
2023/10/11 08:32:42;;;;;;;22.88;11.05;;;;;;;16.41;96.26;101090.41;7394863;19;20352;-67
2023/10/11 08:35:17;;;;;;;27.17;10.75;;;;;;;16.39;96.43;101084.38;7393860;19;20523;-67
2023/10/11 08:37:45;;;;;;;28.70;11.23;;;;;;;16.38;96.86;101105.28;7395300;19;19994;-67
2023/10/11 08:40:23;;;;;;;25.15;10.57;;;;;;;16.37;97.42;101089.16;7388541;19;19938;-67
2023/10/11 08:42:52;;;;;;;29.00;10.50;;;;;;;16.32;98.09;101084.34;7389307;19;20560;-67
2023/10/11 08:45:28;;;;;;;29.38;12.10;;;;;;;16.28;98.11;101092.09;7392074;19;19943;-67
2023/10/11 08:47:57;;;;;;;31.48;12.18;;;;;;;16.27;98.65;101097.72;7394095;19;19959;-67
2023/10/11 08:50:34;;;;;;;30.80;12.98;;;;;;;16.20;99.38;101111.34;7384143;19;19934;-67
2023/10/11 08:53:07;;;;;;;37.47;13.82;;;;;;;16.16;99.42;101101.91;7394432;19;20276;-67
2023/10/11 08:55:36;;;;;;;35.15;12.48;;;;;;;16.13;100.00;101110.50;7398326;19;19926;-67
2023/10/11 08:58:06;;;;;;;36.42;12.55;;;;;;;16.11;100.00;101125.31;7394854;19;19947;-67
2023/10/11 09:00:35;;;;;;;30.73;12.70;;;;;;;16.09;100.00;101116.56;7398107;19;19931;-67
2023/10/11 09:03:20;;;;;;;31.60;13.35;;;;;;;16.05;100.00;101115.31;7400103;19;19918;-67
2023/10/11 09:05:58;;;;;;;31.00;12.68;;;;;;;16.10;100.00;101112.78;7396028;19;19923;-67
2023/10/11 09:08:31;;;;;;;25.95;11.70;;;;;;;16.10;100.00;101124.47;7391867;19;19956;-67
2023/10/11 09:11:15;;;;;;;36.13;13.82;;;;;;;16.09;100.00;101120.09;7397172;19;19947;-67
2023/10/11 09:13:44;;;;;;;34.95;13.20;;;;;;;16.13;100.00;101131.41;7395713;19;19922;-67
2023/10/11 09:16:34;;;;;;;25.73;12.60;;;;;;;16.11;100.00;101134.31;7400591;19;20417;-67
2023/10/11 09:19:05;;;;;;;28.98;12.35;;;;;;;16.18;100.00;101128.91;7399102;19;19986;-67
2023/10/11 09:21:38;;;;;;;29.92;13.48;;;;;;;16.21;100.00;101129.31;7391813;19;19939;-68
2023/10/11 09:24:24;;;;;;;32.78;12.23;;;;;;;16.22;100.00;101141.03;7393984;19;19955;-67
2023/10/11 09:27:18;;;;;;;29.02;12.38;;;;;;;16.27;100.00;101135.78;7397389;19;19929;-67
2023/10/11 09:29:47;;;;;;;28.58;13.07;;;;;;;16.29;100.00;101134.56;7398519;19;19932;-67
2023/10/11 09:32:19;;;;;;;29.08;11.80;;;;;;;16.32;100.00;101144.16;7398746;19;20007;-67
2023/10/11 09:34:51;;;;;;;35.63;11.52;;;;;;;16.34;100.00;101140.22;7397295;19;20663;-67
2023/10/11 09:37:22;;;;;;;;;;;;;;;16.28;100.00;101161.94;7388688;19;19926;-67
2023/10/11 09:39:51;;;;;;;26.38;11.20;;;;;;;16.34;100.00;101159.25;7396532;19;19952;-67
2023/10/11 09:42:24;;;;;;;24.80;10.10;;;;;;;16.40;100.00;101186.63;7397820;19;19918;-68
2023/10/11 09:44:57;;;;;;;25.38;10.02;;;;;;;16.42;100.00;101168.25;7395149;19;19939;-67
2023/10/11 09:47:31;;;;;;;27.65;10.88;;;;;;;16.44;100.00;101172.41;7397946;19;19930;-67
2023/10/11 09:50:03;;;;;;;24.38;10.00;;;;;;;16.48;100.00;101160.06;7397852;19;20317;-68
2023/10/11 09:52:36;;;;;;;26.85;9.40;;;;;;;16.52;100.00;101165.97;7395911;19;19922;-68
2023/10/11 09:55:17;;;;;;;26.90;9.40;;;;;;;16.56;100.00;101169.94;7396647;19;19926;-68
2023/10/11 09:57:57;;;;;;;27.80;9.90;;;;;;;16.60;100.00;101173.94;7395646;19;19945;-68
2023/10/11 10:00:41;;;;;;;23.83;8.75;;;;;;;16.61;100.00;101167.47;7395564;19;19929;-67
2023/10/11 10:03:13;;;;;;;24.50;10.32;;;;;;;16.66;100.00;101157.59;7399144;19;19923;-69
2023/10/11 10:06:11;;;;;;;20.85;8.82;;;;;;;16.67;100.00;101182.94;7390375;19;19927;-67
2023/10/11 10:08:47;;;;;;;20.15;9.00;;;;;;;16.74;100.00;101186.47;7395731;19;19960;-67
2023/10/11 10:11:19;;;;;;;17.55;7.93;;;;;;;16.80;100.00;101185.66;7396497;19;19914;-67
2023/10/11 10:14:24;;;;;;;17.08;7.55;;;;;;;16.85;99.99;101180.41;7394964;19;20006;-67
2023/10/11 10:17:19;;;;;;;18.85;7.57;;;;;;;16.94;99.05;101176.44;7396273;19;19923;-67
2023/10/11 10:19:49;;;;;;;16.60;6.50;;;;;;;17.09;97.65;101170.75;7394267;19;19918;-68
2023/10/11 10:22:21;;;;;;;18.25;7.55;;;;;;;17.20;97.38;101161.94;7386523;19;19927;-67
2023/10/11 10:24:54;;;;;;;;;;;;;;;17.16;96.53;101150.63;7394423;19;19926;-68
2023/10/11 10:27:36;;;;;;;14.43;5.78;;;;;;;17.26;95.51;101155.63;7377618;19;20608;-67
2023/10/11 10:30:07;;;;;;;13.95;4.97;;;;;;;17.41;95.37;101158.94;7387732;19;19926;-68
2023/10/11 10:32:38;;;;;;;15.45;5.75;;;;;;;17.53;94.21;101167.28;7385902;19;19927;-68
2023/10/11 10:35:36;;;;;;;11.95;5.13;;;;;;;17.66;92.91;101150.91;7393885;19;19939;-69
2023/10/11 10:38:09;;;;;;;11.50;5.03;;;;;;;17.81;92.59;101164.25;7392592;19;20425;-67
2023/10/11 10:40:42;;;;;;;13.05;4.60;;;;;;;17.92;91.37;101156.22;7392684;19;19918;-68
2023/10/11 10:43:23;;;;;;;9.90;4.30;;;;;;;17.94;90.90;101165.03;7392701;19;20389;-67
2023/10/11 10:45:52;;;;;;;11.45;4.72;;;;;;;17.95;90.49;101165.84;7396040;19;19919;-66
2023/10/11 10:48:23;;;;;;;11.70;5.80;;;;;;;17.90;90.26;101152.91;7396184;19;19931;-67
2023/10/11 10:50:50;;;;;;;14.80;4.75;;;;;;;17.89;90.42;101144.91;7394536;19;19926;-68
2023/10/11 10:53:20;;;;;;;7.82;3.72;;;;;;;17.89;90.87;101140.31;7396712;19;19983;-68
2023/10/11 10:55:49;;;;;;;8.43;3.75;;;;;;;17.92;90.72;101139.03;7400845;19;20463;-67
2023/10/11 10:58:22;;;;;;;10.52;4.22;;;;;;;18.03;89.26;101117.34;7399266;19;19996;-68
2023/10/11 11:00:52;;;;;;;12.30;4.30;;;;;;;18.17;87.95;101129.00;7400605;19;20308;-68
2023/10/11 11:03:31;;;;;;;10.48;3.95;;;;;;;18.52;87.18;101122.06;7402894;19;19919;-68
2023/10/11 11:05:58;;;;;;;12.88;3.70;;;;;;;18.76;86.93;101112.19;7395877;19;19930;-68
2023/10/11 11:08:32;;;;;;;10.60;4.13;;;;;;;18.91;85.78;101117.28;7401170;19;19927;-68
2023/10/11 11:13:52;;;;;;;7.70;3.22;;;;;;;19.09;84.12;101114.56;7397445;19;19918;-69
2023/10/11 11:16:19;;;;;;;8.20;3.60;;;;;;;19.07;84.36;101110.41;7397562;19;19926;-69
2023/10/11 11:18:48;;;;;;;8.85;4.03;;;;;;;19.17;83.17;101118.88;7399662;19;19918;-69
2023/10/11 11:21:25;;;;;;;6.95;4.13;;;;;;;19.22;81.81;101119.03;7392178;19;19923;-69
2023/10/11 11:23:54;;;;;;;11.40;4.03;;;;;;;19.18;83.76;101105.03;7399386;19;19926;-69
2023/10/11 11:26:31;;;;;;;8.63;3.22;;;;;;;19.23;81.79;101127.03;7401592;19;19930;-69
2023/10/11 11:29:08;;;;;;;7.68;3.25;;;;;;;19.24;81.89;101149.72;7399210;19;19996;-70
2023/10/11 11:31:51;;;;;;;8.30;3.08;;;;;;;19.29;79.84;101114.34;7393649;19;19946;-67
2023/10/11 11:34:27;;;;;;;;;;;;;;;19.20;80.15;101118.47;7400713;19;19926;-69
2023/10/11 11:36:58;;;;;;;6.38;3.20;;;;;;;19.25;80.68;101115.84;7398194;19;20291;-68
2023/10/11 11:39:36;;;;;;;8.43;2.88;;;;;;;19.28;81.54;101126.34;7400639;19;20356;-69
2023/10/11 11:42:09;;;;;;;5.82;2.60;;;;;;;19.30;80.78;101105.06;7401278;19;19918;-68
2023/10/11 11:44:39;;;;;;;6.07;2.22;;;;;;;19.27;80.67;101121.94;7400410;19;20279;-69
2023/10/11 11:47:05;;;;;;;7.55;3.00;;;;;;;19.26;80.57;101125.72;7396776;19;20326;-67
2023/10/11 11:49:35;;;;;;;7.28;3.08;;;;;;;19.16;81.27;101118.06;7397642;19;19943;-68
2023/10/11 11:52:01;;;;;;;4.95;2.58;;;;;;;19.11;82.11;101120.66;7399272;19;19958;-68
2023/10/11 11:54:29;;;;;;;;;;;;;;;18.91;80.54;101123.56;7401199;19;19926;-68
2023/10/11 11:56:56;;;;;;;7.43;2.50;;;;;;;18.96;81.89;101121.00;7395671;19;19925;-68
2023/10/11 11:59:29;;;;;;;11.80;3.03;;;;;;;18.94;81.27;101123.13;7395034;19;19934;-68
2023/10/11 12:01:59;;;;;;;7.57;2.95;;;;;;;18.90;82.08;101107.41;7393628;19;19977;-68
2023/10/11 12:04:32;;;;;;;5.20;2.67;;;;;;;18.93;82.36;101120.63;7387896;19;19950;-67
2023/10/11 12:07:00;;;;;;;6.25;2.40;;;;;;;18.91;82.48;101126.31;7392670;19;20268;-68
2023/10/11 12:09:34;;;;;;;4.57;2.20;;;;;;;18.96;81.75;101125.63;7398345;19;19926;-68
2023/10/11 12:12:04;;;;;;;6.75;2.40;;;;;;;19.13;81.29;101101.28;7398823;19;19919;-67
2023/10/11 12:14:37;;;;;;;9.18;3.03;;;;;;;19.42;79.73;101095.88;7399367;19;19941;-67
2023/10/11 12:17:09;;;;;;;5.95;2.58;;;;;;;19.67;79.61;101087.63;7400030;19;19918;-67